sensor_id;sensor_type;location;lat;lon;timestamp;pressure;altitude;pressure_sealevel;temperature;humidity
70589;BME280;58152;49.202;18.744;2023-03-14T02:05:34;95950.75;;;8.96;51.07
70589;BME280;58152;49.202;18.744;2023-03-14T02:15:21;95932.72;;;8.91;51.06
70589;BME280;58152;49.202;18.744;2023-03-14T02:18:26;95926.66;;;8.77;51.44
70589;BME280;58152;49.202;18.744;2023-03-14T02:27:58;95936.00;;;8.81;50.84
70589;BME280;58152;49.202;18.744;2023-03-14T06:06:44;95777.38;;;8.94;50.54
70589;BME280;58152;49.202;18.744;2023-03-14T06:10:08;95781.56;;;8.97;50.77
70589;BME280;58152;49.202;18.744;2023-03-14T07:14:44;95837.34;;;9.51;50.29
70589;BME280;58152;49.202;18.744;2023-03-14T07:17:14;95862.88;;;9.48;50.31
70589;BME280;58152;49.202;18.744;2023-03-14T07:19:46;95878.09;;;9.55;50.69
70589;BME280;58152;49.202;18.744;2023-03-14T07:22:12;95887.56;;;9.58;50.28
70589;BME280;58152;49.202;18.744;2023-03-14T07:24:37;95886.59;;;9.59;50.50
70589;BME280;58152;49.202;18.744;2023-03-14T07:27:03;95886.97;;;9.67;50.52
70589;BME280;58152;49.202;18.744;2023-03-14T07:29:28;95891.03;;;9.71;50.35
70589;BME280;58152;49.202;18.744;2023-03-14T07:31:53;95878.81;;;9.72;49.93
70589;BME280;58152;49.202;18.744;2023-03-14T07:34:19;95888.75;;;9.79;49.88
70589;BME280;58152;49.202;18.744;2023-03-14T07:36:44;95875.47;;;9.82;50.07
70589;BME280;58152;49.202;18.744;2023-03-14T07:39:10;95873.38;;;9.87;50.07
70589;BME280;58152;49.202;18.744;2023-03-14T07:41:35;95897.69;;;9.89;50.25
70589;BME280;58152;49.202;18.744;2023-03-14T07:44:01;95887.31;;;9.88;50.09
70589;BME280;58152;49.202;18.744;2023-03-14T07:46:26;95881.06;;;9.90;50.10
70589;BME280;58152;49.202;18.744;2023-03-14T07:48:51;95873.09;;;9.92;50.35
70589;BME280;58152;49.202;18.744;2023-03-14T07:51:17;95870.56;;;9.90;49.88
70589;BME280;58152;49.202;18.744;2023-03-14T07:53:42;95875.50;;;9.95;50.17
70589;BME280;58152;49.202;18.744;2023-03-14T07:56:09;95876.03;;;10.00;50.08
70589;BME280;58152;49.202;18.744;2023-03-14T07:58:34;95860.22;;;10.02;50.30
70589;BME280;58152;49.202;18.744;2023-03-14T08:01:00;95851.72;;;10.11;50.15
70589;BME280;58152;49.202;18.744;2023-03-14T08:03:25;95842.19;;;10.10;50.05
70589;BME280;58152;49.202;18.744;2023-03-14T08:05:51;95846.38;;;10.12;50.45
70589;BME280;58152;49.202;18.744;2023-03-14T08:08:17;95861.19;;;10.13;50.48
70589;BME280;58152;49.202;18.744;2023-03-14T08:10:42;95847.97;;;10.15;50.44
70589;BME280;58152;49.202;18.744;2023-03-14T08:13:09;95865.16;;;10.19;50.34
70589;BME280;58152;49.202;18.744;2023-03-14T08:15:34;95862.66;;;10.17;49.97
70589;BME280;58152;49.202;18.744;2023-03-14T08:17:59;95853.53;;;10.23;49.94
70589;BME280;58152;49.202;18.744;2023-03-14T08:20:27;95861.84;;;10.30;50.25
70589;BME280;58152;49.202;18.744;2023-03-14T08:22:58;95862.59;;;10.32;49.78
70589;BME280;58152;49.202;18.744;2023-03-14T08:25:24;95852.81;;;10.34;49.97
70589;BME280;58152;49.202;18.744;2023-03-14T08:27:50;95868.25;;;10.38;49.52
70589;BME280;58152;49.202;18.744;2023-03-14T08:30:16;95839.22;;;10.41;49.46
70589;BME280;58152;49.202;18.744;2023-03-14T08:32:42;95835.19;;;10.49;49.99
70589;BME280;58152;49.202;18.744;2023-03-14T08:35:08;95841.91;;;10.53;49.91
70589;BME280;58152;49.202;18.744;2023-03-14T08:37:34;95832.06;;;10.56;49.68
70589;BME280;58152;49.202;18.744;2023-03-14T08:40:01;95837.63;;;10.64;49.88
70589;BME280;58152;49.202;18.744;2023-03-14T08:42:30;95827.84;;;10.66;49.86
70589;BME280;58152;49.202;18.744;2023-03-14T08:44:55;95821.78;;;10.66;50.07
70589;BME280;58152;49.202;18.744;2023-03-14T08:47:21;95836.97;;;10.74;49.41
70589;BME280;58152;49.202;18.744;2023-03-14T08:49:46;95834.75;;;10.80;49.93
70589;BME280;58152;49.202;18.744;2023-03-14T08:52:14;95825.63;;;10.86;49.68
70589;BME280;58152;49.202;18.744;2023-03-14T08:54:43;95839.03;;;10.94;49.47
70589;BME280;58152;49.202;18.744;2023-03-14T08:57:09;95837.34;;;10.93;49.15
70589;BME280;58152;49.202;18.744;2023-03-14T08:59:34;95854.69;;;10.96;49.25
70589;BME280;58152;49.202;18.744;2023-03-14T09:02:00;95838.69;;;10.99;49.42
70589;BME280;58152;49.202;18.744;2023-03-14T09:04:29;95834.84;;;11.04;49.29
70589;BME280;58152;49.202;18.744;2023-03-14T09:06:54;95836.06;;;11.11;49.56
70589;BME280;58152;49.202;18.744;2023-03-14T09:09:19;95829.84;;;11.12;49.23
70589;BME280;58152;49.202;18.744;2023-03-14T09:11:45;95828.59;;;11.18;49.38
70589;BME280;58152;49.202;18.744;2023-03-14T09:14:10;95817.84;;;11.21;49.01
70589;BME280;58152;49.202;18.744;2023-03-14T09:16:36;95822.22;;;11.33;49.15
70589;BME280;58152;49.202;18.744;2023-03-14T09:19:04;95809.72;;;11.37;49.13
70589;BME280;58152;49.202;18.744;2023-03-14T09:21:31;95814.22;;;11.35;48.73
70589;BME280;58152;49.202;18.744;2023-03-14T09:23:56;95815.00;;;11.48;48.99
70589;BME280;58152;49.202;18.744;2023-03-14T09:26:21;95800.84;;;11.51;48.99
70589;BME280;58152;49.202;18.744;2023-03-14T09:28:47;95801.41;;;11.54;49.05
70589;BME280;58152;49.202;18.744;2023-03-14T09:31:14;95823.22;;;11.67;48.85
70589;BME280;58152;49.202;18.744;2023-03-14T09:33:40;95812.81;;;11.66;49.42
70589;BME280;58152;49.202;18.744;2023-03-14T09:36:06;95795.66;;;11.73;49.11
70589;BME280;58152;49.202;18.744;2023-03-14T09:38:33;95802.25;;;11.79;49.24
70589;BME280;58152;49.202;18.744;2023-03-14T09:41:00;95793.28;;;11.81;48.82
70589;BME280;58152;49.202;18.744;2023-03-14T09:43:28;95790.47;;;11.84;48.90
70589;BME280;58152;49.202;18.744;2023-03-14T09:45:57;95801.81;;;11.85;49.18
70589;BME280;58152;49.202;18.744;2023-03-14T09:48:33;95814.00;;;11.86;49.39
70589;BME280;58152;49.202;18.744;2023-03-14T09:51:02;95805.41;;;11.84;49.47
70589;BME280;58152;49.202;18.744;2023-03-14T09:53:37;95807.22;;;11.94;49.19
70589;BME280;58152;49.202;18.744;2023-03-14T09:56:08;95792.06;;;11.98;49.15
70589;BME280;58152;49.202;18.744;2023-03-14T09:58:36;95801.53;;;12.12;49.06
70589;BME280;58152;49.202;18.744;2023-03-14T10:01:02;95801.06;;;12.18;48.79
70589;BME280;58152;49.202;18.744;2023-03-14T10:03:33;95798.69;;;12.26;48.88
70589;BME280;58152;49.202;18.744;2023-03-14T10:05:59;95790.78;;;12.26;48.73
70589;BME280;58152;49.202;18.744;2023-03-14T10:08:25;95783.75;;;12.27;48.43
70589;BME280;58152;49.202;18.744;2023-03-14T10:10:51;95785.78;;;12.34;48.41
70589;BME280;58152;49.202;18.744;2023-03-14T10:13:23;95785.22;;;12.42;48.88
70589;BME280;58152;49.202;18.744;2023-03-14T10:16:08;95780.88;;;12.41;48.97
70589;BME280;58152;49.202;18.744;2023-03-14T10:18:36;95779.09;;;12.41;48.93
70589;BME280;58152;49.202;18.744;2023-03-14T10:21:03;95782.34;;;12.56;49.12
70589;BME280;58152;49.202;18.744;2023-03-14T10:23:30;95789.63;;;12.64;49.02
70589;BME280;58152;49.202;18.744;2023-03-14T10:26:12;95804.69;;;12.62;48.89
70589;BME280;58152;49.202;18.744;2023-03-14T10:31:06;95795.50;;;12.56;48.59
70589;BME280;58152;49.202;18.744;2023-03-14T10:33:34;95797.03;;;12.48;48.68
70589;BME280;58152;49.202;18.744;2023-03-14T10:36:06;95800.38;;;12.50;48.55
70589;BME280;58152;49.202;18.744;2023-03-14T10:38:40;95800.72;;;12.45;49.18
70589;BME280;58152;49.202;18.744;2023-03-14T10:41:23;95800.25;;;12.40;49.19
70589;BME280;58152;49.202;18.744;2023-03-14T10:43:51;95789.97;;;12.37;49.22
70589;BME280;58152;49.202;18.744;2023-03-14T10:46:19;95783.88;;;12.36;49.42
70589;BME280;58152;49.202;18.744;2023-03-14T10:48:45;95773.25;;;12.38;49.34
70589;BME280;58152;49.202;18.744;2023-03-14T10:51:18;95782.69;;;12.40;50.19
70589;BME280;58152;49.202;18.744;2023-03-14T10:53:49;95790.69;;;12.39;49.96
70589;BME280;58152;49.202;18.744;2023-03-14T10:56:21;95787.84;;;12.42;49.77
70589;BME280;58152;49.202;18.744;2023-03-14T10:58:48;95791.53;;;12.39;49.92
70589;BME280;58152;49.202;18.744;2023-03-14T11:01:46;95793.19;;;12.40;49.98
70589;BME280;58152;49.202;18.744;2023-03-14T11:07:07;95792.00;;;12.33;50.02
70589;BME280;58152;49.202;18.744;2023-03-14T11:09:42;95785.41;;;12.28;50.07
70589;BME280;58152;49.202;18.744;2023-03-14T11:15:45;95775.28;;;12.34;50.09
70589;BME280;58152;49.202;18.744;2023-03-14T11:20:42;95767.72;;;12.41;50.41
70589;BME280;58152;49.202;18.744;2023-03-14T11:23:21;95755.66;;;12.50;50.10
70589;BME280;58152;49.202;18.744;2023-03-14T11:28:49;95770.59;;;12.71;49.81
70589;BME280;58152;49.202;18.744;2023-03-14T11:31:26;95762.22;;;12.89;49.56
70589;BME280;58152;49.202;18.744;2023-03-14T11:34:01;95749.38;;;12.95;48.87
70589;BME280;58152;49.202;18.744;2023-03-14T11:36:41;95736.13;;;12.97;49.16
70589;BME280;58152;49.202;18.744;2023-03-14T11:39:17;95736.31;;;13.05;49.25
70589;BME280;58152;49.202;18.744;2023-03-14T11:41:49;95737.13;;;13.17;49.14
70589;BME280;58152;49.202;18.744;2023-03-14T11:44:26;95730.22;;;13.16;48.89
70589;BME280;58152;49.202;18.744;2023-03-14T11:46:57;95724.56;;;13.20;48.81
70589;BME280;58152;49.202;18.744;2023-03-14T11:52:04;95713.94;;;13.11;48.68
70589;BME280;58152;49.202;18.744;2023-03-14T11:54:48;95709.38;;;13.13;48.73
70589;BME280;58152;49.202;18.744;2023-03-14T11:57:17;95691.53;;;13.16;48.90
70589;BME280;58152;49.202;18.744;2023-03-14T12:04:58;95701.25;;;13.16;49.06
70589;BME280;58152;49.202;18.744;2023-03-14T12:10:26;95685.59;;;13.03;49.07
70589;BME280;58152;49.202;18.744;2023-03-14T12:12:52;95692.91;;;13.00;49.59
70589;BME280;58152;49.202;18.744;2023-03-14T12:15:20;95688.75;;;12.97;49.90
70589;BME280;58152;49.202;18.744;2023-03-14T12:17:53;95684.78;;;12.91;49.52
70589;BME280;58152;49.202;18.744;2023-03-14T12:20:22;95681.97;;;12.83;49.99
70589;BME280;58152;49.202;18.744;2023-03-14T12:25:18;95688.53;;;12.78;50.47
70589;BME280;58152;49.202;18.744;2023-03-14T12:30:46;95675.75;;;12.73;50.22
70589;BME280;58152;49.202;18.744;2023-03-14T12:36:04;95657.38;;;12.62;50.72
70589;BME280;58152;49.202;18.744;2023-03-14T12:43:39;95675.66;;;12.63;50.59
70589;BME280;58152;49.202;18.744;2023-03-14T12:49:03;95677.81;;;12.58;51.14
70589;BME280;58152;49.202;18.744;2023-03-14T12:51:40;95672.22;;;12.52;51.11
70589;BME280;58152;49.202;18.744;2023-03-14T12:59:32;95677.38;;;12.42;51.51
70589;BME280;58152;49.202;18.744;2023-03-14T13:04:51;95692.44;;;12.40;52.31
70589;BME280;58152;49.202;18.744;2023-03-14T13:09:55;95691.25;;;12.33;52.06
70589;BME280;58152;49.202;18.744;2023-03-14T13:12:28;95687.88;;;12.31;51.89
70589;BME280;58152;49.202;18.744;2023-03-14T13:14:58;95682.63;;;12.31;52.28
70589;BME280;58152;49.202;18.744;2023-03-14T13:17:33;95689.81;;;12.29;52.90
70589;BME280;58152;49.202;18.744;2023-03-14T13:20:02;95684.66;;;12.27;52.94
70589;BME280;58152;49.202;18.744;2023-03-14T13:22:33;95689.09;;;12.27;52.94
70589;BME280;58152;49.202;18.744;2023-03-14T13:25:09;95692.81;;;12.24;53.71
70589;BME280;58152;49.202;18.744;2023-03-14T13:27:35;95688.47;;;12.23;53.18
70589;BME280;58152;49.202;18.744;2023-03-14T13:32:43;95692.44;;;12.17;53.90
70589;BME280;58152;49.202;18.744;2023-03-14T13:35:26;95696.25;;;12.13;54.74
70589;BME280;58152;49.202;18.744;2023-03-14T13:38:01;95695.78;;;12.08;54.39
70589;BME280;58152;49.202;18.744;2023-03-14T13:40:32;95702.34;;;12.03;54.97
70589;BME280;58152;49.202;18.744;2023-03-14T13:43:11;95694.34;;;12.04;54.91
70589;BME280;58152;49.202;18.744;2023-03-14T13:48:53;95686.44;;;11.93;56.41
70589;BME280;58152;49.202;18.744;2023-03-14T13:51:23;95693.38;;;11.94;55.78
70589;BME280;58152;49.202;18.744;2023-03-14T13:53:52;95693.59;;;11.91;55.44
70589;BME280;58152;49.202;18.744;2023-03-14T13:56:19;95704.84;;;11.93;55.71
70589;BME280;58152;49.202;18.744;2023-03-14T13:58:46;95699.94;;;11.88;56.15
70589;BME280;58152;49.202;18.744;2023-03-14T14:01:16;95702.34;;;11.91;56.20
70589;BME280;58152;49.202;18.744;2023-03-14T14:03:45;95696.47;;;11.88;56.97
70589;BME280;58152;49.202;18.744;2023-03-14T14:06:30;95698.38;;;11.86;57.34
70589;BME280;58152;49.202;18.744;2023-03-14T14:08:58;95705.34;;;11.87;57.27
70589;BME280;58152;49.202;18.744;2023-03-14T14:14:12;95697.25;;;11.77;58.48
70589;BME280;58152;49.202;18.744;2023-03-14T14:16:43;95700.34;;;11.71;58.49
70589;BME280;58152;49.202;18.744;2023-03-14T14:19:11;95709.81;;;11.74;58.71
70589;BME280;58152;49.202;18.744;2023-03-14T14:21:40;95711.59;;;11.73;58.56
70589;BME280;58152;49.202;18.744;2023-03-14T14:24:13;95721.97;;;11.75;58.75
70589;BME280;58152;49.202;18.744;2023-03-14T14:26:49;95705.97;;;11.66;59.78
70589;BME280;58152;49.202;18.744;2023-03-14T14:43:20;95715.97;;;11.50;61.51
70589;BME280;58152;49.202;18.744;2023-03-14T14:46:09;95720.69;;;11.45;62.11
70589;BME280;58152;49.202;18.744;2023-03-14T14:52:08;95739.47;;;11.52;62.14
70589;BME280;58152;49.202;18.744;2023-03-14T14:54:38;95724.41;;;11.42;62.67
70589;BME280;58152;49.202;18.744;2023-03-14T14:57:24;95744.09;;;11.48;63.29
70589;BME280;58152;49.202;18.744;2023-03-14T15:00:49;95739.53;;;11.39;63.66
70589;BME280;58152;49.202;18.744;2023-03-14T15:03:12;95752.16;;;11.34;63.52
70589;BME280;58152;49.202;18.744;2023-03-14T15:06:08;95745.47;;;11.30;63.77
70589;BME280;58152;49.202;18.744;2023-03-14T15:08:43;95748.44;;;11.25;64.33
70589;BME280;58152;49.202;18.744;2023-03-14T15:11:18;95749.19;;;11.27;63.94
70589;BME280;58152;49.202;18.744;2023-03-14T15:13:44;95750.44;;;11.22;65.09
70589;BME280;58152;49.202;18.744;2023-03-14T15:16:15;95761.69;;;11.24;65.03
70589;BME280;58152;49.202;18.744;2023-03-14T15:18:41;95755.94;;;11.18;64.95
70589;BME280;58152;49.202;18.744;2023-03-14T15:21:10;95749.59;;;11.21;64.44
70589;BME280;58152;49.202;18.744;2023-03-14T15:23:35;95761.91;;;11.20;65.34
70589;BME280;58152;49.202;18.744;2023-03-14T15:26:01;95751.22;;;11.11;65.32
70589;BME280;58152;49.202;18.744;2023-03-14T15:28:28;95763.91;;;11.17;65.57
70589;BME280;58152;49.202;18.744;2023-03-14T15:30:56;95752.19;;;11.10;65.53
70589;BME280;58152;49.202;18.744;2023-03-14T15:33:23;95765.19;;;11.11;65.33
70589;BME280;58152;49.202;18.744;2023-03-14T15:35:49;95759.94;;;11.11;65.88
70589;BME280;58152;49.202;18.744;2023-03-14T15:38:17;95744.75;;;11.04;65.77
70589;BME280;58152;49.202;18.744;2023-03-14T15:40:46;95757.66;;;11.07;65.45
70589;BME280;58152;49.202;18.744;2023-03-14T15:43:15;95776.66;;;11.10;65.77
70589;BME280;58152;49.202;18.744;2023-03-14T15:45:43;95785.84;;;11.16;66.36
70589;BME280;58152;49.202;18.744;2023-03-14T15:48:28;95776.31;;;11.15;66.07
70589;BME280;58152;49.202;18.744;2023-03-14T15:50:54;95766.34;;;11.07;66.34
70589;BME280;58152;49.202;18.744;2023-03-14T15:53:20;95774.34;;;11.06;66.59
70589;BME280;58152;49.202;18.744;2023-03-14T15:55:45;95768.34;;;11.04;66.64
70589;BME280;58152;49.202;18.744;2023-03-14T15:58:16;95790.94;;;11.06;66.70
70589;BME280;58152;49.202;18.744;2023-03-14T16:00:41;95787.94;;;11.00;67.25
70589;BME280;58152;49.202;18.744;2023-03-14T16:03:07;95781.31;;;10.94;67.25
70589;BME280;58152;49.202;18.744;2023-03-14T16:05:33;95784.25;;;10.89;67.22
70589;BME280;58152;49.202;18.744;2023-03-14T16:07:58;95796.34;;;10.92;67.16
70589;BME280;58152;49.202;18.744;2023-03-14T16:10:28;95791.19;;;10.90;67.24
70589;BME280;58152;49.202;18.744;2023-03-14T16:12:54;95786.28;;;10.86;67.33
70589;BME280;58152;49.202;18.744;2023-03-14T16:15:19;95790.47;;;10.88;67.14
70589;BME280;58152;49.202;18.744;2023-03-14T16:17:45;95781.97;;;10.85;66.75
70589;BME280;58152;49.202;18.744;2023-03-14T16:20:11;95788.03;;;10.85;67.18
70589;BME280;58152;49.202;18.744;2023-03-14T16:22:37;95790.56;;;10.87;67.28
70589;BME280;58152;49.202;18.744;2023-03-14T16:25:04;95791.09;;;10.79;67.36
70589;BME280;58152;49.202;18.744;2023-03-14T16:27:30;95792.69;;;10.82;67.37
70589;BME280;58152;49.202;18.744;2023-03-14T16:29:56;95795.81;;;10.87;67.32
70589;BME280;58152;49.202;18.744;2023-03-14T16:32:22;95782.19;;;10.82;67.33
70589;BME280;58152;49.202;18.744;2023-03-14T16:34:49;95798.22;;;10.90;67.42
70589;BME280;58152;49.202;18.744;2023-03-14T16:37:14;95790.56;;;10.87;67.75
70589;BME280;58152;49.202;18.744;2023-03-14T16:39:47;95764.66;;;10.82;67.39
70589;BME280;58152;49.202;18.744;2023-03-14T16:42:15;95765.63;;;10.81;67.77
70589;BME280;58152;49.202;18.744;2023-03-14T16:44:43;95761.22;;;10.82;67.65
70589;BME280;58152;49.202;18.744;2023-03-14T16:47:09;95768.50;;;10.89;66.71
70589;BME280;58152;49.202;18.744;2023-03-14T16:49:35;95758.13;;;10.88;67.01
70589;BME280;58152;49.202;18.744;2023-03-14T16:52:01;95749.88;;;10.81;67.23
70589;BME280;58152;49.202;18.744;2023-03-14T16:54:26;95734.16;;;10.81;66.96
70589;BME280;58152;49.202;18.744;2023-03-14T16:56:52;95718.72;;;10.77;66.66
70589;BME280;58152;49.202;18.744;2023-03-14T16:59:18;95712.94;;;10.72;67.14
70589;BME280;58152;49.202;18.744;2023-03-14T17:01:44;95728.16;;;10.79;66.79
70589;BME280;58152;49.202;18.744;2023-03-14T17:04:10;95736.13;;;10.78;66.94
70589;BME280;58152;49.202;18.744;2023-03-14T17:06:36;95744.00;;;10.78;67.22
70589;BME280;58152;49.202;18.744;2023-03-14T17:09:03;95732.25;;;10.71;66.93
70589;BME280;58152;49.202;18.744;2023-03-14T17:11:31;95748.75;;;10.73;66.69
70589;BME280;58152;49.202;18.744;2023-03-14T17:14:00;95743.00;;;10.67;66.52
70589;BME280;58152;49.202;18.744;2023-03-14T17:16:26;95740.38;;;10.67;66.77
70589;BME280;58152;49.202;18.744;2023-03-14T17:18:52;95757.03;;;10.66;67.02
70589;BME280;58152;49.202;18.744;2023-03-14T17:21:18;95760.41;;;10.68;67.16
70589;BME280;58152;49.202;18.744;2023-03-14T17:23:43;95765.66;;;10.68;67.23
70589;BME280;58152;49.202;18.744;2023-03-14T17:26:09;95771.84;;;10.67;67.11
70589;BME280;58152;49.202;18.744;2023-03-14T17:28:37;95767.53;;;10.66;67.41
70589;BME280;58152;49.202;18.744;2023-03-14T17:31:05;95775.41;;;10.66;67.07
70589;BME280;58152;49.202;18.744;2023-03-14T17:33:31;95774.88;;;10.61;67.60
70589;BME280;58152;49.202;18.744;2023-03-14T17:35:56;95777.50;;;10.61;67.87
70589;BME280;58152;49.202;18.744;2023-03-14T17:38:22;95773.22;;;10.60;67.82
70589;BME280;58152;49.202;18.744;2023-03-14T17:40:51;95763.16;;;10.54;67.71
70589;BME280;58152;49.202;18.744;2023-03-14T17:43:20;95752.75;;;10.53;67.94
70589;BME280;58152;49.202;18.744;2023-03-14T17:45:46;95767.34;;;10.57;67.40
70589;BME280;58152;49.202;18.744;2023-03-14T17:48:12;95761.47;;;10.53;67.75
70589;BME280;58152;49.202;18.744;2023-03-14T17:50:38;95756.34;;;10.52;67.99
70589;BME280;58152;49.202;18.744;2023-03-14T17:53:04;95772.06;;;10.52;68.34
70589;BME280;58152;49.202;18.744;2023-03-14T17:55:30;95756.53;;;10.49;68.09
70589;BME280;58152;49.202;18.744;2023-03-14T17:57:57;95766.00;;;10.51;68.24
70589;BME280;58152;49.202;18.744;2023-03-14T18:00:23;95756.66;;;10.47;67.84
70589;BME280;58152;49.202;18.744;2023-03-14T18:02:49;95747.34;;;10.43;68.42
70589;BME280;58152;49.202;18.744;2023-03-14T18:05:15;95748.47;;;10.39;68.63
70589;BME280;58152;49.202;18.744;2023-03-14T18:07:42;95744.72;;;10.30;68.79
70589;BME280;58152;49.202;18.744;2023-03-14T18:10:08;95752.69;;;10.29;69.04
70589;BME280;58152;49.202;18.744;2023-03-14T18:12:35;95757.94;;;10.29;68.87
70589;BME280;58152;49.202;18.744;2023-03-14T18:18:11;95772.50;;;10.20;69.10
70589;BME280;58152;49.202;18.744;2023-03-14T18:20:36;95791.19;;;10.28;68.97
70589;BME280;58152;49.202;18.744;2023-03-14T18:23:06;95790.34;;;10.28;69.02
70589;BME280;58152;49.202;18.744;2023-03-14T18:25:32;95795.03;;;10.23;69.77
70589;BME280;58152;49.202;18.744;2023-03-14T18:27:58;95799.75;;;10.17;69.61
70589;BME280;58152;49.202;18.744;2023-03-14T18:30:23;95793.03;;;10.13;69.63
70589;BME280;58152;49.202;18.744;2023-03-14T18:32:52;95810.44;;;10.14;69.54
70589;BME280;58152;49.202;18.744;2023-03-14T18:35:17;95815.03;;;10.11;69.37
70589;BME280;58152;49.202;18.744;2023-03-14T18:37:44;95813.25;;;10.11;69.25
70589;BME280;58152;49.202;18.744;2023-03-14T18:40:10;95826.59;;;10.08;69.32
70589;BME280;58152;49.202;18.744;2023-03-14T18:42:38;95822.06;;;10.10;70.13
70589;BME280;58152;49.202;18.744;2023-03-14T18:45:04;95822.28;;;10.07;69.72
70589;BME280;58152;49.202;18.744;2023-03-14T18:47:29;95821.03;;;10.00;69.71
70589;BME280;58152;49.202;18.744;2023-03-14T18:49:55;95854.53;;;10.08;69.75
70589;BME280;58152;49.202;18.744;2023-03-14T18:52:21;95863.59;;;10.04;69.61
70589;BME280;58152;49.202;18.744;2023-03-14T18:54:53;95865.88;;;9.96;69.67
70589;BME280;58152;49.202;18.744;2023-03-14T19:00:12;95890.47;;;9.93;69.74
70589;BME280;58152;49.202;18.744;2023-03-14T19:02:43;95887.31;;;9.88;69.65
70589;BME280;58152;49.202;18.744;2023-03-14T19:05:24;95893.63;;;9.85;69.85
70589;BME280;58152;49.202;18.744;2023-03-14T19:08:12;95898.00;;;9.85;69.66
70589;BME280;58152;49.202;18.744;2023-03-14T19:10:38;95900.28;;;9.77;69.81
70589;BME280;58152;49.202;18.744;2023-03-14T19:13:04;95912.56;;;9.76;69.80
70589;BME280;58152;49.202;18.744;2023-03-14T19:15:29;95923.09;;;9.75;69.53
70589;BME280;58152;49.202;18.744;2023-03-14T19:17:55;95941.25;;;9.78;69.52
70589;BME280;58152;49.202;18.744;2023-03-14T19:20:20;95955.19;;;9.78;69.20
70589;BME280;58152;49.202;18.744;2023-03-14T19:22:46;95953.69;;;9.74;69.21
70589;BME280;58152;49.202;18.744;2023-03-14T19:25:15;95952.84;;;9.74;69.22
70589;BME280;58152;49.202;18.744;2023-03-14T19:27:40;95953.16;;;9.69;69.52
70589;BME280;58152;49.202;18.744;2023-03-14T19:30:06;95936.13;;;9.62;69.63
70589;BME280;58152;49.202;18.744;2023-03-14T19:32:35;95936.25;;;9.60;69.38
70589;BME280;58152;49.202;18.744;2023-03-14T19:35:08;95946.84;;;9.59;69.60
70589;BME280;58152;49.202;18.744;2023-03-14T19:37:33;95945.63;;;9.50;69.70
70589;BME280;58152;49.202;18.744;2023-03-14T19:40:12;95936.09;;;9.49;69.83
70589;BME280;58152;49.202;18.744;2023-03-14T19:42:42;95934.63;;;9.45;69.76
70589;BME280;58152;49.202;18.744;2023-03-14T19:45:16;95943.41;;;9.44;69.73
70589;BME280;58152;49.202;18.744;2023-03-14T19:48:01;95946.03;;;9.44;69.57
70589;BME280;58152;49.202;18.744;2023-03-14T19:50:34;95930.91;;;9.35;69.80
70589;BME280;58152;49.202;18.744;2023-03-14T19:53:00;95923.88;;;9.35;69.43
70589;BME280;58152;49.202;18.744;2023-03-14T19:55:31;95923.88;;;9.35;69.39
70589;BME280;58152;49.202;18.744;2023-03-14T19:58:04;95934.53;;;9.32;69.25
70589;BME280;58152;49.202;18.744;2023-03-14T20:00:32;95942.28;;;9.34;68.89
70589;BME280;58152;49.202;18.744;2023-03-14T20:02:58;95933.88;;;9.29;68.92
70589;BME280;58152;49.202;18.744;2023-03-14T20:05:23;95946.91;;;9.30;68.69
70589;BME280;58152;49.202;18.744;2023-03-14T20:11:09;95954.16;;;9.25;68.74
70589;BME280;58152;49.202;18.744;2023-03-14T20:13:38;95943.25;;;9.19;68.92
70589;BME280;58152;49.202;18.744;2023-03-14T20:16:06;95958.84;;;9.20;68.60
70589;BME280;58152;49.202;18.744;2023-03-14T20:30:27;95956.34;;;9.04;69.67
70589;BME280;58152;49.202;18.744;2023-03-14T20:35:45;95954.97;;;8.99;68.50
70589;BME280;58152;49.202;18.744;2023-03-14T20:38:17;95947.84;;;9.01;69.07
70589;BME280;58152;49.202;18.744;2023-03-14T20:40:45;95940.56;;;8.91;69.28
70589;BME280;58152;49.202;18.744;2023-03-14T20:43:15;95950.91;;;8.93;69.71
70589;BME280;58152;49.202;18.744;2023-03-14T20:45:43;95949.63;;;9.00;69.72
70589;BME280;58152;49.202;18.744;2023-03-14T20:48:08;95949.22;;;9.06;69.42
70589;BME280;58152;49.202;18.744;2023-03-14T20:56:08;95953.34;;;8.96;69.88
70589;BME280;58152;49.202;18.744;2023-03-14T20:58:33;95945.97;;;8.88;69.89
70589;BME280;58152;49.202;18.744;2023-03-14T21:09:37;95948.78;;;8.85;70.24
70589;BME280;58152;49.202;18.744;2023-03-14T21:12:15;95951.41;;;8.85;70.24
70589;BME280;58152;49.202;18.744;2023-03-14T21:14:47;95950.63;;;8.83;70.39
70589;BME280;58152;49.202;18.744;2023-03-14T21:17:12;95946.16;;;8.85;70.68
70589;BME280;58152;49.202;18.744;2023-03-14T21:19:38;95952.41;;;8.97;70.33
70589;BME280;58152;49.202;18.744;2023-03-14T21:26:55;95953.34;;;8.96;70.38
70589;BME280;58152;49.202;18.744;2023-03-14T21:29:59;95962.03;;;8.97;70.67
70589;BME280;58152;49.202;18.744;2023-03-14T21:32:27;95950.63;;;8.83;70.35
70589;BME280;58152;49.202;18.744;2023-03-14T21:35:00;95959.25;;;8.85;70.36
70589;BME280;58152;49.202;18.744;2023-03-14T21:37:28;95953.53;;;8.79;70.32
70589;BME280;58152;49.202;18.744;2023-03-14T21:39:54;95964.66;;;8.82;70.21
70589;BME280;58152;49.202;18.744;2023-03-14T21:42:21;95955.31;;;8.78;70.88
70589;BME280;58152;49.202;18.744;2023-03-14T21:44:48;95956.63;;;8.71;71.01
70589;BME280;58152;49.202;18.744;2023-03-14T21:47:20;95944.47;;;8.70;71.02
70589;BME280;58152;49.202;18.744;2023-03-14T21:49:50;95965.38;;;8.70;71.72
70589;BME280;58152;49.202;18.744;2023-03-14T21:52:18;95972.22;;;8.73;71.26
70589;BME280;58152;49.202;18.744;2023-03-14T21:54:44;95972.22;;;8.73;71.26
70589;BME280;58152;49.202;18.744;2023-03-14T21:57:17;95963.53;;;8.72;71.35
70589;BME280;58152;49.202;18.744;2023-03-14T21:59:44;95967.66;;;8.76;71.53
70589;BME280;58152;49.202;18.744;2023-03-14T22:02:16;95980.50;;;8.79;71.16